x

Buoy B01 - Western Maine Shelf (44030) Wave Buoy

9:04 - Sat 27th Aug 2016 All times are EDT. -4 hours from GMT.

  • Sig Wave height 1.6ft
  • Peak Period 11s
  • Wind
  • Sea Temp 67°f
  • Air Temp 67°f
  • Sea Pressure 1023.1mb
  • Buoy B01 - Western Maine Shelf
  • Buoy B01 - Western Maine Shelf

More Historic Weather Station data

Upgrade to MSW Pro to gain access to the past 30 days of data for over 8000 Wavebouys and Weather Stations around the globe.

Join Pro

Comparision Forecast

View Surf forecast
   
sam. 08/27 9:04 1.6ft 11s  -  2 mph 1023.1mb 67f 67f
8:04 1.3ft 11s  -  2 mph 1022.5mb 68f 67f
7:04 1.3ft 8s 4
mph
1021.9mb 68f 68f
6:04 1.3ft 8s 7
mph
1021.7mb 68f 70f
5:04 1.3ft 11s 7
mph
1021.6mb 68f 70f
4:04 1.3ft 8s 7 9 mph 1021.5mb 68f 70f
3:04 1.3ft 11s 9
mph
1021.4mb 68f 70f
2:04 1ft 8s 7 11 mph 1021.5mb 68f 69f
1:04 1.3ft 8s 7
mph
1021.5mb 67f 69f
12:04 1.3ft 8s 4
mph
1021.7mb 67f 69f
11:04 1.3ft 8s 2
mph
1021.8mb 66f 69f
10:04 1.6ft 8s 7
mph
1021.8mb 66f 68f
9:04 1.3ft 8s 4 7 mph 1021.2mb 66f 66f
8:04 1.3ft 6s 7 9 mph 1020.6mb 66f 66f
7:04 1.3ft 8s 9 11 mph 1020mb 66f 66f
6:04 1.3ft 8s 7 9 mph 1019.1mb 66f 66f
5:04 1.3ft 8s 9
mph
1018.7mb 66f 66f
4:04 1.3ft 8s 4
mph
1018.4mb 66f 67f
3:04 1.3ft 8s 7
mph
1018.2mb 66f 68f
2:04 1.3ft 8s 4 7 mph 1017.8mb 66f 68f
1:04 1.3ft 8s 9
mph
1017.4mb 67f 70f
12:04 1.3ft 8s 9
mph
1016.9mb 67f 70f
ven. 08/26 11:04 1.3ft 8s 7
mph
1016.4mb 67f 70f
10:04 1.3ft 5s 9 22 mph 1015.6mb 68f 71f
9:04 1.3ft 5s 7
mph
1014.7mb 67f 72f
8:04 1.3ft 5s 7
mph
1013.9mb 68f 69f
7:04 1.6ft 5s 7 9 mph 1013.2mb 68f 69f
6:04 1.6ft 8s 9
mph
1012.9mb 68f 71f
5:04 1.6ft 8s 7 9 mph 1012.9mb 68f 72f
4:04 1.6ft 8s 7
mph
1013mb 70f 72f
3:04 2ft 8s 4
mph
1013mb 68f 72f
2:04 2ft 8s 2 4 mph 1013.1mb 66f 71f
1:04 2ft 8s 4 7 mph 1013.1mb 66f 69f
12:04 2ft 8s 4
mph
1013.6mb 66f 68f
11:04 2ft 8s 4 7 mph 1013.7mb 66f 67f
10:04 2ft 5s 9
mph
1013.9mb 66f 66f
9:04 2ft 5s 9 11 mph 1013.4mb 66f 66f
8:04 2.5ft 5s 11
mph
1013.3mb 65f 66f
7:04 2.5ft 5s 7
mph
1013.3mb 65f 66f
6:04 2.5ft 5s 9
mph
1013.3mb 65f 65f
5:04 2.5ft 5s 11 13 mph 1013mb 65f 66f
4:04 2.5ft 5s 13
mph
1013mb 65f 67f
3:04 2.5ft 5s 13
mph
1012.9mb 65f 67f
2:04 2.5ft 8s 13 16 mph 1013.4mb 66f 67f
1:04 2.5ft 8s 13
mph
1013.6mb 66f 68f
12:04 3ft 5s 13
mph
1013.8mb 66f 67f
jeu. 08/25 11:04 3ft 4s 13 16 mph 1014mb 66f 68f
10:04 3ft 5s 13 16 mph 1014.1mb 66f 68f
9:04 3ft 5s 13 16 mph 1014.1mb 66f 68f
8:04 3.5ft 5s 13 16 mph 1013.9mb 66f 69f
7:04 3.5ft 5s 13 16 mph 1013.7mb 66f 68f
6:04 3.5ft 5s 16 18 mph 1013.7mb 66f 68f
5:04 2.5ft 5s 11 13 mph 1013.7mb 66f 68f
4:04 2.5ft 5s 16 18 mph 1013.9mb 66f 68f
3:04 2.5ft 5s 16 18 mph 1014.5mb 66f 69f
2:04 3ft 5s 16 18 mph 1015.4mb 66f 69f
1:04 2.5ft 4s 18 20 mph 1015.8mb 66f 69f
12:04 2.5ft 4s 18 20 mph 1016.3mb 66f 67f
11:04 2.5ft 4s 16 18 mph 1016.9mb 66f 67f
10:04 3.5ft 11s 16 18 mph 1017.1mb 66f 67f
9:04 2.5ft 4s 16 18 mph 1017.4mb 65f 66f
8:04 2.5ft 4s 13 16 mph 1017.7mb 65f 66f
7:04 2ft 4s 11 13 mph 1017.9mb 64f 65f
6:04 2ft 4s 11 13 mph 1018mb 65f 65f
5:04 2ft 4s 11 13 mph 1017.8mb 65f 65f
4:04 1.6ft 4s 13 16 mph 1017.7mb 65f 66f
3:04 1.3ft 4s 11 13 mph 1017.8mb 65f 66f
2:04 1ft 4s 11 13 mph 1018.3mb 66f 66f
1:04 1ft 3s 11
mph
1019.3mb 66f 66f
12:04 1.3ft 4s 7 9 mph 1019.6mb 65f 66f
mer. 08/24 11:04 1.6ft 11s 9
mph
1019.8mb 65f 66f
10:04 1ft 3s 9 11 mph 1019.9mb 65f 66f
9:04 1.3ft 4s 7 9 mph 1020.3mb 64f 65f
8:04 1.6ft 4s 9
mph
1020.1mb 64f 67f
7:04 1.6ft 4s 11 13 mph 1019.8mb 65f 68f
6:04 1.6ft 4s 16 18 mph 1019.4mb 65f 69f
5:04 1.3ft 3s 16 18 mph 1019.9mb 66f 69f
4:04 1.3ft 3s 16 18 mph 1019.9mb 66f 70f
3:04 1.3ft 2s 13 16 mph 1020.6mb 66f 69f
2:04 1ft 4s 11 13 mph 1021.2mb 66f 68f
1:04 1.6ft 8s 11
mph
1021.7mb 66f 68f
12:04 1.6ft 8s 9 11 mph 1022.3mb 66f 67f
11:04 1.6ft 8s 9
mph
1022.9mb 66f 66f
10:04 1.3ft 3s 7
mph
1023.2mb 66f 66f
9:04 1ft 4s 7 9 mph 1023.1mb 65f 65f
8:04 1.6ft 11s 9 11 mph 1023.3mb 65f 64f
7:04 1.6ft 11s 11 13 mph 1022.7mb 65f 64f
6:04 1.6ft 11s 9 11 mph 1022.3mb 65f 64f
5:04 1.6ft 8s 9
mph
1022.1mb 65f 64f
4:04 1.6ft 8s 7 9 mph 1022.1mb 64f 65f
3:04 1.6ft 11s 7 9 mph 1022.3mb 64f 65f